Time;durP1;ratioP1;P1;durP2;ratioP2;P2;SDS_P1;SDS_P2;PMS_P1;PMS_P2;Temp;Humidity;BMP_temperature;BMP_pressure;BME280_temperature;BME280_humidity;BME280_pressure;Samples;Min_cycle;Max_cycle;Signal;HPM_P1;HPM_P2
2023/11/30 00:02:22;;;;;;;32.70;22.85;;;1.70;95.30;;;;;;5039664;28;20547;-78
2023/11/30 00:04:47;;;;;;;31.77;23.08;;;1.70;95.40;;;;;;5031313;28;20037;-79
2023/11/30 00:07:13;;;;;;;31.02;24.15;;;1.70;95.40;;;;;;5038572;28;20032;-77
2023/11/30 00:09:39;;;;;;;33.38;24.40;;;1.60;95.40;;;;;;5037567;28;20032;-78
2023/11/30 00:12:05;;;;;;;32.70;24.73;;;1.60;95.50;;;;;;5038846;28;20020;-79
2023/11/30 00:14:31;;;;;;;30.95;25.02;;;1.60;95.60;;;;;;5037375;28;20380;-79
2023/11/30 00:16:56;;;;;;;34.50;23.60;;;1.70;95.60;;;;;;5042092;28;20116;-79
2023/11/30 00:19:22;;;;;;;35.47;24.20;;;1.70;95.60;;;;;;5038985;28;20017;-78
2023/11/30 00:21:48;;;;;;;33.05;25.13;;;1.80;95.60;;;;;;5038933;28;20131;-77
2023/11/30 00:24:14;;;;;;;32.25;24.10;;;1.80;95.40;;;;;;5038802;28;20025;-80
2023/11/30 00:26:39;;;;;;;31.60;23.10;;;1.80;95.30;;;;;;5039659;28;20470;-77
2023/11/30 00:29:05;;;;;;;33.85;22.48;;;1.80;95.30;;;;;;5041765;28;20032;-78
2023/11/30 00:31:31;;;;;;;35.25;25.25;;;1.90;95.30;;;;;;5041814;28;20029;-77
2023/11/30 00:33:57;;;;;;;36.08;24.70;;;1.90;95.30;;;;;;5042004;28;20063;-78
2023/11/30 00:36:22;;;;;;;32.85;24.90;;;2.00;95.40;;;;;;5037027;28;20110;-80
2023/11/30 00:38:48;;;;;;;34.58;25.92;;;2.10;95.40;;;;;;5039538;28;20226;-77
2023/11/30 00:41:15;;;;;;;36.35;25.63;;;2.10;95.40;;;;;;5035021;28;20431;-78
2023/11/30 00:43:40;;;;;;;36.08;25.13;;;2.20;95.40;;;;;;5036892;28;20025;-80
2023/11/30 00:46:08;;;;;;;38.55;26.95;;;2.20;95.30;;;;;;5036833;28;20694;-79
2023/11/30 00:48:34;;;;;;;38.97;27.40;;;2.30;95.30;;;;;;5040357;28;20108;-78
2023/11/30 00:51:00;;;;;;;36.58;26.20;;;2.30;95.20;;;;;;5038040;28;20613;-78
2023/11/30 00:53:26;;;;;;;41.45;27.55;;;2.30;95.30;;;;;;5045431;28;20096;-78
2023/11/30 00:55:51;;;;;;;42.72;29.85;;;2.40;95.30;;;;;;5038347;28;20037;-80
2023/11/30 00:58:17;;;;;;;42.95;28.77;;;2.50;95.30;;;;;;5036043;28;20029;-77
2023/11/30 01:00:43;;;;;;;40.80;28.63;;;2.50;95.20;;;;;;5039118;28;20067;-77
2023/11/30 01:03:08;;;;;;;44.58;29.80;;;2.50;95.10;;;;;;5037016;28;20029;-80
2023/11/30 01:05:34;;;;;;;40.97;30.38;;;2.40;95.00;;;;;;5036112;28;20048;-77
2023/11/30 01:07:59;;;;;;;46.05;30.90;;;2.30;94.90;;;;;;5033316;28;20036;-78
2023/11/30 01:10:25;;;;;;;58.83;36.88;;;2.30;95.20;;;;;;5037093;28;20048;-77
2023/11/30 01:12:51;;;;;;;48.83;32.05;;;2.30;95.40;;;;;;5036858;28;20025;-79
2023/11/30 01:15:16;;;;;;;41.97;29.67;;;2.30;95.70;;;;;;5035678;28;20061;-80
2023/11/30 01:17:42;;;;;;;46.55;30.05;;;2.30;95.80;;;;;;5037270;28;20025;-78
2023/11/30 01:20:08;;;;;;;55.53;32.63;;;2.40;95.90;;;;;;5030102;28;20367;-78
2023/11/30 01:22:34;;;;;;;50.05;31.88;;;2.50;95.90;;;;;;5042466;28;20024;-80
2023/11/30 01:25:00;;;;;;;52.35;31.33;;;2.60;95.90;;;;;;5035740;28;20294;-79
2023/11/30 01:27:26;;;;;;;52.88;32.05;;;2.60;95.90;;;;;;5041477;28;20029;-81
2023/11/30 01:29:51;;;;;;;52.22;33.15;;;2.70;95.80;;;;;;5038405;28;20033;-78
2023/11/30 01:32:17;;;;;;;62.75;32.53;;;2.70;95.80;;;;;;5042075;28;20021;-79
2023/11/30 01:34:43;;;;;;;46.85;30.67;;;2.70;95.90;;;;;;5043504;28;20657;-83
2023/11/30 01:37:08;;;;;;;47.95;29.70;;;2.70;95.90;;;;;;5038035;28;20087;-79
2023/11/30 01:39:34;;;;;;;39.80;27.50;;;2.80;95.80;;;;;;5030557;28;20521;-77
2023/11/30 01:41:59;;;;;;;44.17;29.58;;;2.80;95.80;;;;;;5035735;28;20107;-78
2023/11/30 01:44:25;;;;;;;43.78;27.48;;;2.80;95.80;;;;;;5036288;28;20039;-79
2023/11/30 01:46:51;;;;;;;42.25;28.10;;;2.80;95.80;;;;;;5043492;28;20033;-81
2023/11/30 01:49:17;;;;;;;41.22;27.95;;;2.80;95.90;;;;;;5044830;28;20106;-78
2023/11/30 01:51:43;;;;;;;55.38;30.05;;;2.80;95.90;;;;;;5031960;28;20030;-77
2023/11/30 01:54:08;;;;;;;42.78;28.13;;;2.80;95.90;;;;;;5034739;28;20025;-80
2023/11/30 01:56:37;;;;;;;38.60;28.63;;;2.80;95.90;;;;;;5035335;28;20052;-77
2023/11/30 01:59:03;;;;;;;43.38;27.67;;;2.80;96.00;;;;;;5039245;28;20018;-77
2023/11/30 02:01:30;;;;;;;70.22;31.15;;;2.80;96.00;;;;;;5040082;28;20037;-76
2023/11/30 02:03:57;;;;;;;81.45;29.10;;;2.80;95.90;;;;;;5036924;28;20025;-81
2023/11/30 02:06:23;;;;;;;40.22;27.30;;;2.70;95.90;;;;;;5037592;28;20040;-78
2023/11/30 02:08:48;;;;;;;38.28;27.42;;;2.70;96.10;;;;;;5034213;28;20442;-77
2023/11/30 02:11:14;;;;;;;37.60;27.05;;;2.70;96.10;;;;;;5034684;28;20462;-78
2023/11/30 02:13:40;;;;;;;39.65;27.33;;;2.80;96.20;;;;;;5036697;28;20104;-81
2023/11/30 02:16:06;;;;;;;39.42;27.67;;;2.80;96.30;;;;;;5035738;28;20071;-77
2023/11/30 02:18:32;;;;;;;36.85;26.67;;;2.80;96.20;;;;;;5041873;28;20028;-79
2023/11/30 02:20:57;;;;;;;39.88;27.15;;;2.80;96.30;;;;;;5036119;28;20052;-80
2023/11/30 02:23:23;;;;;;;40.03;26.75;;;2.80;96.30;;;;;;5036787;28;20049;-80
2023/11/30 02:25:49;;;;;;;58.53;29.17;;;2.80;96.30;;;;;;5037390;28;20375;-78
2023/11/30 02:28:18;;;;;;;39.25;27.10;;;2.80;96.30;;;;;;5035827;28;20021;-79
2023/11/30 02:30:49;;;;;;;37.25;25.70;;;2.80;96.40;;;;;;5034669;28;20306;-79
2023/11/30 02:33:15;;;;;;;44.00;27.35;;;2.80;96.40;;;;;;5034055;28;20099;-79
2023/11/30 02:35:41;;;;;;;41.05;28.85;;;2.80;96.50;;;;;;5035110;28;20956;-82
2023/11/30 02:38:07;;;;;;;56.13;28.55;;;2.80;96.50;;;;;;5033907;28;20028;-82
2023/11/30 02:40:32;;;;;;;53.30;28.98;;;2.90;96.50;;;;;;5033120;28;20418;-82
2023/11/30 02:42:58;;;;;;;40.88;27.65;;;2.80;96.50;;;;;;5035956;28;20029;-78
2023/11/30 02:45:23;;;;;;;54.95;28.05;;;2.80;96.60;;;;;;5034176;28;20037;-79
2023/11/30 02:47:49;;;;;;;42.25;27.65;;;2.80;96.60;;;;;;5036875;28;20036;-81
2023/11/30 02:50:15;;;;;;;107.38;38.35;;;2.80;96.70;;;;;;5040727;28;20048;-78
2023/11/30 02:52:40;;;;;;;45.72;29.98;;;2.80;96.70;;;;;;5035857;28;20032;-80
2023/11/30 02:55:07;;;;;;;41.75;29.25;;;2.90;96.80;;;;;;5027596;28;20386;-79
2023/11/30 02:57:32;;;;;;;41.78;29.48;;;2.90;96.80;;;;;;5036227;28;20026;-78
2023/11/30 02:59:58;;;;;;;48.00;30.15;;;2.80;96.80;;;;;;5035317;28;20079;-80
2023/11/30 03:02:23;;;;;;;90.45;32.80;;;2.90;96.80;;;;;;5040238;28;20013;-79
2023/11/30 03:04:49;;;;;;;42.25;28.95;;;2.80;96.80;;;;;;5032639;28;20037;-78
2023/11/30 03:07:15;;;;;;;97.82;32.20;;;2.80;96.90;;;;;;5039662;28;20029;-81
2023/11/30 03:09:40;;;;;;;67.72;31.15;;;2.90;97.00;;;;;;5035114;28;20025;-78
2023/11/30 03:12:06;;;;;;;133.65;32.58;;;2.80;97.00;;;;;;5032943;28;20056;-79
2023/11/30 03:14:32;;;;;;;145.35;36.28;;;2.80;97.10;;;;;;5030264;28;20072;-80
2023/11/30 03:16:58;;;;;;;87.03;31.83;;;2.80;97.10;;;;;;5032205;28;20010;-80
2023/11/30 03:19:23;;;;;;;77.07;31.67;;;2.80;97.20;;;;;;5033801;28;20510;-82
2023/11/30 03:21:50;;;;;;;65.45;32.38;;;2.80;97.20;;;;;;5036996;28;20525;-78
2023/11/30 03:24:17;;;;;;;52.58;31.92;;;2.80;97.30;;;;;;5034383;28;20032;-78
2023/11/30 03:26:42;;;;;;;45.95;29.95;;;2.80;97.40;;;;;;5033139;28;20049;-81
2023/11/30 03:29:08;;;;;;;72.40;32.70;;;2.80;97.40;;;;;;5032624;28;20489;-81
2023/11/30 03:31:34;;;;;;;70.40;33.67;;;2.90;97.50;;;;;;5033314;28;20040;-78
2023/11/30 03:34:00;;;;;;;42.55;29.38;;;3.00;97.50;;;;;;5039191;28;20040;-80
2023/11/30 03:36:25;;;;;;;45.58;30.48;;;3.00;97.50;;;;;;5038473;28;20441;-80
2023/11/30 03:38:53;;;;;;;159.65;38.33;;;3.00;97.60;;;;;;5036315;28;20072;-81
2023/11/30 03:41:20;;;;;;;74.25;35.65;;;3.00;97.50;;;;;;5040336;28;20028;-81
2023/11/30 03:43:47;;;;;;;254.57;45.28;;;3.00;97.60;;;;;;5038634;28;20013;-78
2023/11/30 03:46:12;;;;;;;50.03;32.20;;;3.00;97.60;;;;;;5040547;28;20041;-80
2023/11/30 03:48:38;;;;;;;62.22;31.83;;;3.00;97.70;;;;;;5047892;28;20309;-78
2023/11/30 03:51:04;;;;;;;58.17;30.83;;;3.00;97.80;;;;;;5044133;28;20041;-77
2023/11/30 03:53:30;;;;;;;79.28;32.85;;;3.10;97.90;;;;;;5038074;28;20009;-78
2023/11/30 03:55:55;;;;;;;184.05;37.17;;;3.00;97.90;;;;;;5058467;28;20083;-78
2023/11/30 03:58:21;;;;;;;91.05;32.50;;;3.10;97.90;;;;;;5063667;28;20060;-81
2023/11/30 04:00:47;;;;;;;116.50;36.17;;;3.10;97.90;;;;;;5061985;28;20469;-80
2023/11/30 04:03:12;;;;;;;68.60;32.90;;;3.10;98.00;;;;;;5050530;28;20021;-79
2023/11/30 04:05:38;;;;;;;84.03;33.10;;;3.10;98.10;;;;;;5044653;28;20037;-81
2023/11/30 04:08:04;;;;;;;54.35;32.10;;;3.10;98.10;;;;;;5039766;28;20017;-78
2023/11/30 04:10:29;;;;;;;53.70;31.42;;;3.10;98.10;;;;;;5043047;28;20055;-78
2023/11/30 04:12:55;;;;;;;92.55;32.28;;;3.20;98.20;;;;;;5041890;28;20365;-78
2023/11/30 04:15:21;;;;;;;60.00;31.77;;;3.20;98.20;;;;;;5041926;28;20067;-78
2023/11/30 04:17:46;;;;;;;72.35;32.05;;;3.20;98.30;;;;;;5038003;28;20128;-79
2023/11/30 04:20:12;;;;;;;81.85;34.67;;;3.20;98.20;;;;;;5037100;28;20349;-77
2023/11/30 04:22:37;;;;;;;63.53;32.13;;;3.20;98.20;;;;;;5043257;28;20476;-77
2023/11/30 04:25:03;;;;;;;60.72;33.17;;;3.30;98.30;;;;;;5041853;28;20041;-77
2023/11/30 04:27:29;;;;;;;73.57;34.80;;;3.20;98.30;;;;;;5041921;28;20477;-77
2023/11/30 04:29:55;;;;;;;108.47;34.47;;;3.20;98.30;;;;;;5042972;28;20149;-77
2023/11/30 04:32:20;;;;;;;97.28;33.95;;;3.20;98.30;;;;;;5040703;28;20036;-81
2023/11/30 04:34:46;;;;;;;191.90;37.53;;;3.20;98.30;;;;;;5040807;28;20049;-77
2023/11/30 04:37:11;;;;;;;85.40;33.47;;;3.20;98.40;;;;;;5040542;28;20106;-77
2023/11/30 04:39:37;;;;;;;142.93;36.40;;;3.20;98.40;;;;;;5036342;28;20033;-77
2023/11/30 04:42:03;;;;;;;91.80;36.20;;;3.10;98.30;;;;;;5039174;28;20017;-78
2023/11/30 04:44:29;;;;;;;69.43;34.58;;;3.10;98.40;;;;;;5035532;28;20028;-78
2023/11/30 04:46:55;;;;;;;88.45;35.95;;;3.10;98.40;;;;;;5043227;28;20017;-77
2023/11/30 04:49:20;;;;;;;104.85;36.80;;;3.10;98.40;;;;;;5041889;28;20040;-78
2023/11/30 04:51:46;;;;;;;61.10;34.05;;;3.00;98.40;;;;;;5033264;28;20089;-76
2023/11/30 04:54:12;;;;;;;62.80;33.35;;;3.00;98.40;;;;;;5036955;28;20365;-76
2023/11/30 04:56:37;;;;;;;101.03;38.53;;;3.10;98.50;;;;;;5035651;28;20127;-80
2023/11/30 04:59:03;;;;;;;155.90;42.88;;;3.10;98.60;;;;;;5037846;28;20432;-78
2023/11/30 05:01:30;;;;;;;70.22;34.80;;;3.10;98.50;;;;;;5038876;28;20025;-82
2023/11/30 05:03:57;;;;;;;138.07;38.90;;;3.10;98.50;;;;;;5035586;28;20022;-78
2023/11/30 05:06:23;;;;;;;64.00;34.03;;;3.10;98.50;;;;;;5039607;28;20481;-77
2023/11/30 05:08:49;;;;;;;68.07;33.50;;;3.10;98.50;;;;;;5040275;28;20442;-79
2023/11/30 05:11:15;;;;;;;80.80;34.13;;;3.10;98.60;;;;;;5032636;28;20033;-77
2023/11/30 05:13:41;;;;;;;132.15;36.10;;;3.10;98.50;;;;;;5038121;28;20021;-77
2023/11/30 05:16:07;;;;;;;70.43;32.35;;;3.10;98.50;;;;;;5037294;28;20375;-81
2023/11/30 05:18:32;;;;;;;161.55;34.92;;;3.10;98.50;;;;;;5037021;28;20032;-78
2023/11/30 05:20:58;;;;;;;136.05;36.05;;;3.10;98.50;;;;;;5037477;28;20022;-77
2023/11/30 05:23:24;;;;;;;134.52;33.58;;;3.10;98.50;;;;;;5034689;28;20108;-80
2023/11/30 05:25:50;;;;;;;141.50;36.85;;;3.10;98.50;;;;;;5033971;28;20370;-77
2023/11/30 05:28:16;;;;;;;142.35;33.42;;;2.90;98.40;;;;;;5034886;28;20370;-79
2023/11/30 05:30:42;;;;;;;163.77;35.90;;;2.90;98.40;;;;;;5047133;28;20021;-77
2023/11/30 05:33:08;;;;;;;144.85;32.28;;;2.80;98.50;;;;;;5051471;28;21027;-77
2023/11/30 05:35:35;;;;;;;103.15;34.50;;;2.70;98.50;;;;;;5047401;28;20029;-80
2023/11/30 05:38:01;;;;;;;260.67;37.55;;;2.70;98.60;;;;;;5045559;28;20025;-78
2023/11/30 05:40:26;;;;;;;70.82;30.67;;;2.70;98.60;;;;;;5035825;28;20064;-81
2023/11/30 05:42:52;;;;;;;193.20;36.95;;;2.70;98.60;;;;;;5038776;28;20041;-78
2023/11/30 05:45:18;;;;;;;85.57;29.95;;;2.70;98.60;;;;;;5032023;28;20034;-77
2023/11/30 05:47:43;;;;;;;85.13;30.67;;;2.60;98.70;;;;;;5037530;28;20024;-78
2023/11/30 05:50:09;;;;;;;189.27;38.78;;;2.60;98.70;;;;;;5035354;28;20041;-77
2023/11/30 05:52:35;;;;;;;80.10;33.55;;;2.60;98.70;;;;;;5042092;28;20071;-77
2023/11/30 05:55:03;;;;;;;66.43;31.65;;;2.50;98.80;;;;;;5034216;28;20107;-80
2023/11/30 05:57:29;;;;;;;62.92;29.55;;;2.60;98.80;;;;;;5039514;28;20127;-76
2023/11/30 05:59:55;;;;;;;62.53;29.30;;;2.70;98.90;;;;;;5037546;28;20117;-78
2023/11/30 06:02:22;;;;;;;69.35;30.63;;;2.70;98.90;;;;;;5033961;28;20657;-77
2023/11/30 06:04:55;;;;;;;135.00;33.05;;;2.70;98.90;;;;;;5040794;28;20040;-77
2023/11/30 06:07:23;;;;;;;79.97;28.67;;;2.70;98.90;;;;;;5032539;28;20041;-79
2023/11/30 06:09:49;;;;;;;193.05;34.15;;;2.70;98.90;;;;;;5038246;28;20033;-78
2023/11/30 06:12:14;;;;;;;52.13;26.25;;;2.60;98.80;;;;;;5035338;28;20433;-81
2023/11/30 06:14:40;;;;;;;81.72;27.75;;;2.60;98.80;;;;;;5033761;28;20080;-78
2023/11/30 06:17:06;;;;;;;52.30;26.10;;;2.60;98.80;;;;;;5040681;28;20036;-78
2023/11/30 06:19:32;;;;;;;48.05;24.48;;;2.60;98.80;;;;;;5033189;28;20115;-77
2023/11/30 06:21:59;;;;;;;160.93;31.02;;;2.70;98.90;;;;;;5031088;28;20491;-77
2023/11/30 06:24:26;;;;;;;112.75;27.45;;;2.60;98.80;;;;;;5035552;28;20031;-78
2023/11/30 06:26:52;;;;;;;45.97;24.80;;;2.50;98.70;;;;;;5033229;28;20124;-77
2023/11/30 06:29:18;;;;;;;71.05;28.42;;;2.50;98.70;;;;;;5036704;28;20029;-77
2023/11/30 06:31:44;;;;;;;68.03;29.02;;;2.60;98.80;;;;;;5038861;28;20033;-78
2023/11/30 06:34:09;;;;;;;53.40;23.15;;;2.60;98.80;;;;;;5041537;28;20504;-77
2023/11/30 06:36:35;;;;;;;51.55;31.55;;;2.60;98.80;;;;;;5042349;28;20045;-79
2023/11/30 06:39:01;;;;;;;65.53;38.30;;;2.60;98.80;;;;;;5039974;28;20582;-77
2023/11/30 06:41:26;;;;;;;82.00;34.08;;;2.60;98.80;;;;;;5036853;28;20033;-80
2023/11/30 06:43:52;;;;;;;74.20;27.77;;;2.60;98.80;;;;;;5039443;28;20021;-78
2023/11/30 06:46:22;;;;;;;77.20;25.50;;;2.60;98.70;;;;;;5033907;28;20050;-77
2023/11/30 06:48:51;;;;;;;42.45;24.30;;;2.60;98.70;;;;;;5036263;28;20032;-78
2023/11/30 06:51:17;;;;;;;95.35;25.45;;;2.60;98.70;;;;;;5040116;28;20040;-80
2023/11/30 06:53:43;;;;;;;37.47;20.75;;;2.60;98.70;;;;;;5039857;28;20033;-76
2023/11/30 06:56:10;;;;;;;40.03;21.13;;;2.50;98.60;;;;;;5040674;28;20030;-77
2023/11/30 06:58:36;;;;;;;39.65;22.75;;;2.40;98.50;;;;;;5041740;28;20093;-78
2023/11/30 07:01:04;;;;;;;42.03;20.95;;;2.50;98.60;;;;;;5032349;28;20037;-78
2023/11/30 07:03:30;;;;;;;34.13;19.00;;;2.50;98.60;;;;;;5037295;28;20158;-78
2023/11/30 07:05:56;;;;;;;40.65;18.88;;;2.40;98.50;;;;;;5041084;28;20052;-79
2023/11/30 07:08:22;;;;;;;150.68;23.40;;;2.30;98.50;;;;;;5039016;28;20126;-79
2023/11/30 07:10:48;;;;;;;69.63;18.67;;;2.40;98.50;;;;;;5043068;28;20112;-80
2023/11/30 07:13:13;;;;;;;55.88;19.52;;;2.30;98.40;;;;;;5046709;28;20469;-78
2023/11/30 07:15:39;;;;;;;40.63;19.35;;;2.20;98.30;;;;;;5045988;28;20040;-77
2023/11/30 07:18:04;;;;;;;29.02;16.58;;;2.10;98.30;;;;;;5043947;28;20048;-80
2023/11/30 07:20:30;;;;;;;107.70;21.67;;;2.10;98.30;;;;;;5044264;28;20071;-79
2023/11/30 07:22:57;;;;;;;174.35;25.92;;;2.10;98.40;;;;;;5039418;28;20079;-81
2023/11/30 07:25:23;;;;;;;56.25;24.65;;;2.10;98.20;;;;;;5042674;28;20044;-78
2023/11/30 07:27:50;;;;;;;31.98;20.38;;;2.10;98.30;;;;;;5039937;28;20044;-78
2023/11/30 07:30:15;;;;;;;53.90;28.98;;;2.10;98.40;;;;;;5043800;28;20060;-80
2023/11/30 07:32:42;;;;;;;42.10;20.42;;;2.10;98.40;;;;;;5047791;28;20025;-78
2023/11/30 07:35:08;;;;;;;36.30;22.52;;;2.10;98.30;;;;;;5036511;28;20313;-78
2023/11/30 07:37:35;;;;;;;66.13;22.33;;;2.10;98.20;;;;;;5042819;28;20095;-81
2023/11/30 07:40:00;;;;;;;53.40;18.25;;;2.10;98.30;;;;;;5040231;28;20049;-81
2023/11/30 07:42:26;;;;;;;38.20;16.80;;;2.00;98.00;;;;;;5046412;28;20580;-82
2023/11/30 07:44:52;;;;;;;115.47;21.45;;;1.90;97.80;;;;;;5045075;28;20331;-79
2023/11/30 07:47:21;;;;;;;46.45;17.48;;;1.80;97.80;;;;;;5042905;28;20022;-79
2023/11/30 07:49:47;;;;;;;37.28;17.20;;;1.60;97.70;;;;;;5039678;28;20060;-80
2023/11/30 07:52:13;;;;;;;48.03;18.98;;;1.60;97.80;;;;;;5052606;28;20029;-78
2023/11/30 07:54:39;;;;;;;131.40;25.02;;;1.70;97.90;;;;;;5043107;28;20303;-79
2023/11/30 07:57:05;;;;;;;128.70;20.85;;;1.70;97.90;;;;;;5045215;28;20021;-81
2023/11/30 07:59:31;;;;;;;27.75;16.08;;;1.50;97.70;;;;;;5045115;28;20013;-79
2023/11/30 08:01:56;;;;;;;206.63;29.92;;;1.40;97.70;;;;;;5041281;28;20020;-82
2023/11/30 08:04:22;;;;;;;92.88;21.80;;;1.30;97.70;;;;;;5042097;28;20017;-79
2023/11/30 08:06:48;;;;;;;146.00;24.85;;;1.10;97.80;;;;;;5042991;28;20505;-77
2023/11/30 08:09:13;;;;;;;129.55;26.17;;;1.10;97.90;;;;;;5041545;28;20059;-77
2023/11/30 08:11:41;;;;;;;160.20;25.92;;;1.00;98.10;;;;;;5042163;28;20508;-78
2023/11/30 08:14:08;;;;;;;145.23;27.05;;;1.00;98.20;;;;;;5043002;28;20103;-78
2023/11/30 08:16:34;;;;;;;62.28;24.27;;;1.10;98.40;;;;;;5038966;28;20082;-81
2023/11/30 08:19:00;;;;;;;34.13;20.25;;;1.20;98.50;;;;;;5043151;28;20017;-77
2023/11/30 08:21:25;;;;;;;204.73;33.08;;;1.40;98.60;;;;;;5036751;28;20362;-77
2023/11/30 08:23:51;;;;;;;231.18;33.58;;;1.40;98.60;;;;;;5039874;28;20025;-73
2023/11/30 08:26:17;;;;;;;113.57;25.45;;;1.30;98.50;;;;;;5035730;28;20314;-72
2023/11/30 08:28:46;;;;;;;125.00;23.88;;;1.20;98.50;;;;;;5038030;28;20056;-72
2023/11/30 08:31:12;;;;;;;102.43;23.92;;;1.20;98.40;;;;;;5040332;28;20037;-75
2023/11/30 08:33:38;;;;;;;84.55;23.25;;;1.30;98.50;;;;;;5034630;28;20505;-72
2023/11/30 08:36:04;;;;;;;44.58;21.70;;;1.40;98.60;;;;;;5040662;28;20137;-73
2023/11/30 08:38:36;;;;;;;45.10;21.08;;;1.50;98.60;;;;;;5044402;28;20021;-75
2023/11/30 08:41:02;;;;;;;108.47;23.10;;;1.60;98.70;;;;;;5043528;28;20124;-73
2023/11/30 08:43:27;;;;;;;147.63;26.80;;;1.50;98.40;;;;;;5041483;28;20021;-74
2023/11/30 08:45:53;;;;;;;79.07;24.75;;;1.20;98.30;;;;;;5039935;28;20056;-74
2023/11/30 08:48:19;;;;;;;111.22;26.25;;;1.30;98.50;;;;;;5037010;28;20098;-73
2023/11/30 08:50:44;;;;;;;79.38;21.80;;;1.30;98.50;;;;;;5044861;28;20116;-76
2023/11/30 08:53:10;;;;;;;68.28;23.60;;;1.40;98.60;;;;;;5036406;28;20037;-75
2023/11/30 08:55:36;;;;;;;189.23;30.70;;;1.40;98.50;;;;;;5042817;28;20087;-75
2023/11/30 08:58:03;;;;;;;91.82;22.35;;;1.30;98.40;;;;;;5045174;28;20025;-75
2023/11/30 09:00:28;;;;;;;43.13;21.58;;;1.10;98.40;;;;;;5034910;28;20033;-75
2023/11/30 09:02:56;;;;;;;99.75;24.65;;;1.20;98.50;;;;;;5040925;28;20351;-74
2023/11/30 09:05:23;;;;;;;143.27;25.92;;;1.40;98.70;;;;;;5039951;28;20460;-75
2023/11/30 09:07:50;;;;;;;117.35;25.27;;;1.40;98.40;;;;;;5034750;28;20025;-74
2023/11/30 09:10:18;;;;;;;85.07;21.42;;;1.40;98.50;;;;;;5043571;28;20104;-72
2023/11/30 09:12:44;;;;;;;114.80;20.88;;;1.50;98.50;;;;;;5061432;28;20028;-77
2023/11/30 09:15:12;;;;;;;103.40;23.27;;;1.40;98.40;;;;;;5061111;28;20037;-76
2023/11/30 09:17:37;;;;;;;73.97;19.77;;;1.30;98.30;;;;;;5050438;28;20021;-76
2023/11/30 09:20:07;;;;;;;142.98;28.67;;;1.20;98.20;;;;;;5037293;28;20036;-74
2023/11/30 09:22:33;;;;;;;38.85;19.10;;;1.00;98.10;;;;;;5044412;28;20627;-74
2023/11/30 09:24:59;;;;;;;59.03;24.33;;;1.20;98.40;;;;;;5040283;28;20120;-74
2023/11/30 09:27:24;;;;;;;44.50;24.15;;;1.30;98.50;;;;;;5040068;28;20029;-75
2023/11/30 09:29:50;;;;;;;48.60;21.00;;;1.30;98.50;;;;;;5041135;28;21535;-74
2023/11/30 09:32:16;;;;;;;42.22;19.15;;;1.30;98.40;;;;;;5044004;28;20037;-76
2023/11/30 09:34:42;;;;;;;61.00;19.83;;;1.30;98.40;;;;;;5040789;28;20074;-72
2023/11/30 09:37:07;;;;;;;34.35;18.27;;;1.40;98.40;;;;;;5042920;28;20028;-73
2023/11/30 09:39:33;;;;;;;70.70;21.20;;;1.30;98.30;;;;;;5043799;28;20049;-73
2023/11/30 09:42:00;;;;;;;39.63;20.98;;;1.50;98.30;;;;;;5040937;28;20029;-75
2023/11/30 09:44:27;;;;;;;43.63;21.08;;;1.70;98.50;;;;;;5036425;28;20079;-75
2023/11/30 09:46:53;;;;;;;46.47;22.52;;;1.70;98.40;;;;;;5032021;28;20040;-76
2023/11/30 09:49:19;;;;;;;38.58;20.85;;;1.80;98.40;;;;;;5036428;28;20741;-74
2023/11/30 09:51:50;;;;;;;37.75;20.65;;;2.00;98.50;;;;;;5036134;28;20040;-75
2023/11/30 09:54:16;;;;;;;85.75;23.13;;;2.10;98.60;;;;;;5039854;28;20026;-73
2023/11/30 09:56:42;;;;;;;70.55;29.52;;;2.00;98.10;;;;;;5037179;28;20119;-74
2023/11/30 09:59:07;;;;;;;44.13;25.52;;;1.90;97.90;;;;;;5041368;28;20461;-78
2023/11/30 10:01:33;;;;;;;44.00;24.25;;;2.10;98.00;;;;;;5041010;28;20487;-75
2023/11/30 10:03:59;;;;;;;64.50;36.50;;;2.10;97.90;;;;;;5036862;28;20428;-75
2023/11/30 10:06:24;;;;;;;78.85;47.67;;;2.20;97.90;;;;;;5039860;28;20042;-77
2023/11/30 10:08:50;;;;;;;73.13;42.08;;;2.40;98.10;;;;;;5044168;28;20021;-73
2023/11/30 10:11:16;;;;;;;64.00;34.75;;;2.40;98.00;;;;;;5039125;28;20049;-75
2023/11/30 10:13:42;;;;;;;49.28;28.50;;;2.40;97.90;;;;;;5041203;28;20041;-75
2023/11/30 10:16:10;;;;;;;58.95;28.38;;;2.50;98.00;;;;;;5041434;28;20370;-73
2023/11/30 10:18:36;;;;;;;99.47;50.78;;;2.50;98.00;;;;;;5042685;28;20355;-74
2023/11/30 10:21:02;;;;;;;128.15;66.57;;;2.50;97.90;;;;;;5041942;28;20066;-74
2023/11/30 10:23:29;;;;;;;158.57;81.40;;;2.50;97.90;;;;;;5044287;28;20099;-74
2023/11/30 10:25:56;;;;;;;139.32;75.35;;;2.60;98.00;;;;;;5033104;28;20049;-78
2023/11/30 10:28:22;;;;;;;141.27;75.22;;;2.60;98.00;;;;;;5042671;28;20039;-72
2023/11/30 10:30:53;;;;;;;119.28;63.10;;;2.60;97.90;;;;;;5041010;28;20029;-72
2023/11/30 10:33:22;;;;;;;169.80;66.57;;;2.60;97.80;;;;;;5040734;28;20021;-74
2023/11/30 10:35:53;;;;;;;118.30;55.40;;;2.50;97.70;;;;;;5040691;28;20056;-72
2023/11/30 10:38:30;;;;;;;185.07;81.80;;;2.40;97.60;;;;;;5043183;28;20427;-73
2023/11/30 10:41:04;;;;;;;379.58;146.13;;;2.40;97.40;;;;;;5034268;28;20036;-73
2023/11/30 10:43:31;;;;;;;263.25;140.70;;;2.00;97.20;;;;;;5040032;28;20065;-76
2023/11/30 10:45:59;;;;;;;251.82;91.13;;;2.10;97.40;;;;;;5040149;28;20555;-76
2023/11/30 10:48:26;;;;;;;243.30;86.38;;;2.20;97.50;;;;;;5044692;28;20025;-72
2023/11/30 10:50:54;;;;;;;210.02;78.90;;;2.10;97.40;;;;;;5046083;28;20071;-73
2023/11/30 10:53:56;;;;;;;345.83;77.15;;;2.20;97.40;;;;;;5046304;28;20473;-74
2023/11/30 10:56:22;;;;;;;169.63;86.03;;;2.10;97.40;;;;;;5020614;28;20144;-75
2023/11/30 10:58:48;;;;;;;309.15;99.32;;;2.20;97.50;;;;;;5044796;28;20448;-75
2023/11/30 11:01:13;;;;;;;259.00;91.70;;;2.20;97.60;;;;;;5038220;28;20053;-78
2023/11/30 11:03:55;;;;;;;144.48;75.00;;;2.20;97.60;;;;;;5046572;28;20021;-74
2023/11/30 11:06:27;;;;;;;196.88;93.30;;;2.40;97.80;;;;;;5038919;28;20111;-76
2023/11/30 11:09:00;;;;;;;165.50;76.30;;;2.40;97.90;;;;;;5045172;28;20033;-74
2023/11/30 11:11:30;;;;;;;188.30;72.50;;;2.30;97.80;;;;;;5040950;28;20087;-75
2023/11/30 11:13:55;;;;;;;171.90;86.07;;;2.30;97.90;;;;;;5045170;28;20078;-74
2023/11/30 11:16:41;;;;;;;159.05;73.70;;;2.20;97.90;;;;;;5038340;28;20049;-79
2023/11/30 11:19:10;;;;;;;186.57;78.07;;;2.30;98.00;;;;;;5031174;28;20021;-74
2023/11/30 11:21:37;;;;;;;252.48;76.20;;;2.40;98.00;;;;;;5034371;28;20039;-77
2023/11/30 11:24:04;;;;;;;172.02;68.30;;;2.50;98.20;;;;;;5040298;28;20720;-76
2023/11/30 11:26:47;;;;;;;155.40;66.50;;;2.60;98.20;;;;;;5038918;28;20136;-75
2023/11/30 11:29:14;;;;;;;126.95;55.50;;;2.70;98.10;;;;;;5031472;28;20033;-75
2023/11/30 11:31:43;;;;;;;125.03;47.78;;;2.80;98.10;;;;;;5035449;28;20033;-77
2023/11/30 11:34:09;;;;;;;109.95;45.03;;;2.50;97.70;;;;;;5035461;28;20025;-74
2023/11/30 11:36:39;;;;;;;110.53;46.40;;;2.50;97.90;;;;;;5037164;28;20041;-75
2023/11/30 11:39:06;;;;;;;102.47;46.58;;;2.60;98.10;;;;;;5034603;28;20109;-74
2023/11/30 11:41:33;;;;;;;104.93;45.70;;;2.60;98.00;;;;;;5033882;28;20041;-74
2023/11/30 11:43:59;;;;;;;105.95;47.58;;;2.60;98.10;;;;;;5036569;28;20124;-76
2023/11/30 11:46:24;;;;;;;96.80;46.25;;;2.70;98.20;;;;;;5037990;28;20487;-76
2023/11/30 11:48:50;;;;;;;99.40;47.20;;;2.80;98.20;;;;;;5039383;28;20052;-77
2023/11/30 11:51:16;;;;;;;115.70;57.10;;;2.90;98.10;;;;;;5036112;28;20381;-73
2023/11/30 11:53:42;;;;;;;126.78;62.55;;;3.00;98.10;;;;;;5037005;28;20037;-77
2023/11/30 11:56:09;;;;;;;128.25;61.13;;;2.90;97.70;;;;;;5033426;28;20108;-75
2023/11/30 11:58:35;;;;;;;114.65;59.72;;;2.70;97.60;;;;;;5038548;28;20048;-75
2023/11/30 12:01:01;;;;;;;112.80;58.58;;;2.80;97.70;;;;;;5034939;28;20528;-77
2023/11/30 12:03:27;;;;;;;111.80;53.08;;;2.80;97.70;;;;;;5037691;28;20043;-74
2023/11/30 12:05:53;;;;;;;116.00;57.22;;;2.80;97.60;;;;;;5039240;28;20046;-75
2023/11/30 12:08:34;;;;;;;121.60;54.05;;;2.60;97.40;;;;;;5036349;28;20043;-74
2023/11/30 12:11:00;;;;;;;101.47;48.33;;;2.50;97.50;;;;;;5031431;28;20396;-77
2023/11/30 12:13:27;;;;;;;112.60;50.75;;;2.40;97.60;;;;;;5038072;28;20025;-76
2023/11/30 12:15:54;;;;;;;107.20;48.78;;;2.40;97.60;;;;;;5033050;28;20036;-75
2023/11/30 12:18:20;;;;;;;102.82;47.63;;;2.40;97.90;;;;;;5035739;28;20467;-75
2023/11/30 12:20:47;;;;;;;122.55;51.97;;;2.50;97.90;;;;;;5035479;28;20559;-74
2023/11/30 12:23:13;;;;;;;116.32;49.70;;;2.50;98.00;;;;;;5036049;28;20028;-76
2023/11/30 12:25:39;;;;;;;110.95;50.28;;;2.40;98.00;;;;;;5033965;28;20441;-75
2023/11/30 12:28:06;;;;;;;116.43;49.85;;;2.40;98.00;;;;;;5034742;28;20039;-74
2023/11/30 12:30:32;;;;;;;121.95;51.08;;;2.40;98.10;;;;;;5035155;28;20040;-75